createdAt,value
2023-04-15T00:00:07.332Z,74.49
2023-04-15T00:02:35.687Z,74.43
2023-04-15T00:05:03.387Z,73.88
2023-04-15T00:07:31.930Z,73.84
2023-04-15T00:10:00.011Z,74.07
2023-04-15T00:12:27.815Z,74.69
2023-04-15T00:14:57.183Z,75.00
2023-04-15T00:17:25.305Z,74.60
2023-04-15T00:19:52.815Z,73.62
2023-04-15T00:22:20.741Z,74.58
2023-04-15T00:24:49.103Z,73.87
2023-04-15T00:27:17.153Z,73.84
2023-04-15T00:29:44.775Z,72.99
2023-04-15T00:32:19.051Z,73.32
2023-04-15T00:34:47.242Z,73.77
2023-04-15T00:37:14.727Z,73.25
2023-04-15T00:39:42.542Z,73.86
2023-04-15T00:42:09.942Z,75.13
2023-04-15T00:44:38.243Z,75.04
2023-04-15T00:47:05.457Z,76.53
2023-04-15T00:49:33.249Z,78.54
2023-04-15T00:52:01.153Z,79.28
2023-04-15T00:54:29.279Z,79.98
2023-04-15T00:56:58.110Z,80.29
2023-04-15T00:59:26.028Z,79.88
2023-04-15T01:01:53.198Z,80.70
2023-04-15T01:04:20.806Z,81.93
2023-04-15T01:06:48.675Z,82.40
2023-04-15T01:09:17.081Z,83.41
2023-04-15T01:11:44.845Z,83.39
2023-04-15T01:14:12.665Z,83.32
2023-04-15T01:16:39.911Z,83.78
2023-04-15T01:19:09.196Z,83.99
2023-04-15T01:21:39.895Z,84.82
2023-04-15T01:24:11.046Z,84.74
2023-04-15T01:26:44.474Z,85.30
2023-04-15T01:29:12.171Z,84.95
2023-04-15T01:31:40.285Z,85.76
2023-04-15T01:34:08.125Z,85.08
2023-04-15T01:36:35.576Z,84.21
2023-04-15T01:39:04.217Z,84.92
2023-04-15T01:41:35.018Z,84.29
2023-04-15T01:44:02.860Z,84.87
2023-04-15T01:46:30.803Z,84.92
2023-04-15T01:48:58.592Z,84.74
2023-04-15T01:51:26.755Z,85.13
2023-04-15T01:53:56.961Z,86.17
2023-04-15T01:56:24.699Z,85.90
2023-04-15T01:58:52.470Z,85.71
2023-04-15T02:01:19.957Z,87.12
2023-04-15T02:03:48.052Z,87.22
2023-04-15T02:06:15.924Z,87.20
2023-04-15T02:08:44.874Z,86.43
2023-04-15T02:11:12.619Z,86.31
2023-04-15T02:13:40.586Z,87.03
2023-04-15T02:16:17.336Z,87.47
2023-04-15T02:18:48.235Z,87.34
2023-04-15T02:21:15.920Z,87.49
2023-04-15T02:23:44.326Z,87.34
2023-04-15T02:26:12.086Z,87.91
2023-04-15T02:28:40.495Z,86.80
2023-04-15T02:31:09.704Z,86.90
2023-04-15T02:33:37.922Z,86.75
2023-04-15T02:36:08.465Z,87.45
2023-04-15T02:38:36.729Z,86.98
2023-04-15T02:41:04.940Z,87.83
2023-04-15T02:43:35.861Z,88.00
2023-04-15T02:46:03.844Z,88.62
2023-04-15T02:48:31.899Z,89.03
2023-04-15T02:51:20.048Z,88.59
2023-04-15T02:53:48.669Z,87.83
2023-04-15T02:56:17.397Z,88.10
2023-04-15T02:58:46.036Z,88.52
2023-04-15T03:01:13.805Z,88.98
2023-04-15T03:03:41.476Z,88.27
2023-04-15T03:06:09.271Z,88.40
2023-04-15T03:08:37.241Z,88.52
2023-04-15T03:11:06.352Z,88.23
2023-04-15T03:13:33.890Z,88.81
2023-04-15T03:16:01.770Z,88.73
2023-04-15T03:18:29.398Z,88.83
2023-04-15T03:20:57.338Z,89.23
2023-04-15T03:23:25.227Z,88.49
2023-04-15T03:25:55.688Z,88.99
2023-04-15T03:28:23.624Z,90.21
2023-04-15T03:30:51.545Z,89.83
2023-04-15T03:33:19.389Z,89.25
2023-04-15T03:35:51.396Z,89.71
2023-04-15T03:38:19.253Z,88.81
2023-04-15T03:40:47.856Z,88.97
2023-04-15T03:43:15.316Z,89.96
2023-04-15T03:45:43.214Z,89.32
2023-04-15T03:48:16.602Z,89.54
2023-04-15T03:50:45.603Z,88.69
2023-04-15T03:53:13.596Z,89.00
2023-04-15T03:55:41.613Z,88.53
2023-04-15T03:58:12.941Z,88.48
2023-04-15T04:00:41.614Z,89.74
2023-04-15T04:03:09.805Z,90.39
2023-04-15T04:05:39.060Z,90.06
2023-04-15T04:08:07.621Z,90.60
2023-04-15T04:10:35.238Z,90.45
2023-04-15T04:13:03.258Z,90.05
2023-04-15T04:15:31.290Z,89.91
2023-04-15T04:17:59.251Z,90.76
2023-04-15T04:20:26.860Z,90.48
2023-04-15T04:22:54.723Z,90.65
2023-04-15T04:25:23.152Z,90.31
2023-04-15T04:27:50.745Z,90.87
2023-04-15T04:30:19.098Z,90.79
2023-04-15T04:32:47.130Z,90.67
2023-04-15T04:35:14.637Z,91.36
2023-04-15T04:37:42.792Z,91.14
2023-04-15T04:40:13.256Z,91.39
2023-04-15T04:42:40.755Z,91.00
2023-04-15T04:45:10.387Z,90.97
2023-04-15T04:47:38.487Z,90.69
2023-04-15T04:50:09.244Z,90.61
2023-04-15T04:52:37.330Z,91.18
2023-04-15T04:55:08.907Z,90.39
2023-04-15T04:57:36.522Z,90.61
2023-04-15T05:00:06.337Z,91.32
2023-04-15T05:02:34.757Z,91.03
2023-04-15T05:05:02.895Z,91.81
2023-04-15T05:07:30.718Z,91.22
2023-04-15T05:09:58.642Z,91.12
2023-04-15T05:12:26.290Z,91.07
2023-04-15T05:14:54.318Z,91.79
2023-04-15T05:17:22.025Z,91.42
2023-04-15T05:19:50.039Z,91.35
2023-04-15T05:22:18.028Z,91.12
2023-04-15T05:24:45.615Z,90.37
2023-04-15T05:27:13.149Z,90.29
2023-04-15T05:29:40.718Z,89.34
2023-04-15T05:32:14.341Z,89.18
2023-04-15T05:34:42.019Z,88.72
2023-04-15T05:37:09.784Z,87.94
2023-04-15T05:39:37.372Z,87.21
2023-04-15T05:42:06.058Z,87.48
2023-04-15T05:44:33.695Z,86.61
2023-04-15T05:47:01.441Z,86.56
2023-04-15T05:49:29.372Z,86.00
2023-04-15T05:51:57.111Z,85.55
2023-04-15T05:54:24.584Z,85.21
2023-04-15T05:56:52.095Z,85.62
2023-04-15T05:59:21.032Z,85.27
2023-04-15T06:01:48.634Z,85.99
2023-04-15T06:04:17.338Z,85.16
2023-04-15T06:06:45.062Z,84.54
2023-04-15T06:09:12.914Z,84.69
2023-04-15T06:11:41.420Z,84.64
2023-04-15T06:14:09.345Z,84.43
2023-04-15T06:16:37.589Z,83.04
2023-04-15T06:19:05.804Z,82.57
2023-04-15T06:21:33.547Z,82.38
2023-04-15T06:24:04.029Z,81.91
2023-04-15T06:26:38.088Z,81.69
2023-04-15T06:29:05.845Z,81.41
2023-04-15T06:31:34.145Z,80.93
2023-04-15T06:34:01.727Z,81.12
2023-04-15T06:36:30.000Z,80.61
2023-04-15T06:38:57.969Z,79.52
2023-04-15T06:41:25.593Z,79.31
2023-04-15T06:43:53.134Z,78.91
2023-04-15T06:46:20.847Z,78.73
2023-04-15T06:48:48.996Z,78.24
2023-04-15T06:51:16.663Z,78.25
2023-04-15T06:53:47.219Z,77.85
2023-04-15T06:56:15.062Z,77.25
2023-04-15T06:58:43.017Z,76.34
2023-04-15T07:01:11.392Z,74.43
2023-04-15T07:03:38.919Z,73.43
2023-04-15T07:06:07.248Z,73.36
2023-04-15T07:08:35.253Z,72.74
2023-04-15T07:11:02.881Z,72.79
2023-04-15T07:13:32.294Z,71.14
2023-04-15T07:15:59.829Z,71.18
2023-04-15T07:18:27.697Z,71.35
2023-04-15T07:20:56.821Z,71.16
2023-04-15T07:23:24.433Z,71.44
2023-04-15T07:25:52.293Z,71.25
2023-04-15T07:28:20.828Z,71.66
2023-04-15T07:30:48.319Z,71.28
2023-04-15T07:33:16.003Z,69.76
2023-04-15T07:35:43.579Z,70.06
2023-04-15T07:38:13.583Z,68.88
2023-04-15T07:40:42.938Z,69.15
2023-04-15T07:43:10.857Z,68.08
2023-04-15T07:45:38.411Z,67.22
2023-04-15T07:48:08.260Z,66.88
2023-04-15T07:50:36.260Z,66.89
2023-04-15T07:53:03.767Z,65.19
2023-04-15T07:55:31.649Z,64.35
2023-04-15T07:57:59.676Z,64.74
2023-04-15T08:00:27.486Z,64.62
2023-04-15T08:02:57.452Z,63.09
2023-04-15T08:05:25.859Z,62.58
2023-04-15T08:07:53.897Z,62.48
2023-04-15T08:10:22.034Z,60.37
2023-04-15T08:12:49.720Z,61.81
2023-04-15T08:15:21.104Z,63.13
2023-04-15T08:17:49.252Z,62.29
2023-04-15T08:20:16.966Z,60.48
2023-04-15T08:22:44.716Z,61.94
2023-04-15T08:25:12.902Z,60.55
2023-04-15T08:27:41.135Z,60.18
2023-04-15T08:30:10.824Z,58.43
2023-04-15T08:32:38.857Z,58.47
2023-04-15T08:35:08.051Z,59.14
2023-04-15T08:37:35.964Z,57.45
2023-04-15T08:40:04.216Z,56.31
2023-04-15T08:42:37.535Z,55.67
2023-04-15T08:45:06.897Z,55.66
2023-04-15T08:47:34.552Z,55.28
2023-04-15T08:50:02.737Z,54.08
2023-04-15T08:52:31.556Z,53.98
2023-04-15T08:54:59.107Z,52.47
2023-04-15T08:57:28.639Z,53.78
2023-04-15T08:59:58.506Z,51.73
2023-04-15T09:02:28.608Z,52.40
2023-04-15T09:04:56.807Z,52.87
2023-04-15T09:07:24.295Z,51.53
2023-04-15T09:09:52.481Z,49.37
2023-04-15T09:12:20.982Z,49.03
2023-04-15T09:14:48.441Z,49.88
2023-04-15T09:17:15.833Z,48.76
2023-04-15T09:19:43.812Z,49.23
2023-04-15T09:22:11.522Z,50.42
2023-04-15T09:24:40.338Z,50.93
2023-04-15T09:27:08.431Z,50.00
2023-04-15T09:29:37.193Z,47.89
2023-04-15T09:32:11.873Z,47.57
2023-04-15T09:34:39.470Z,46.72
2023-04-15T09:37:07.709Z,46.58
2023-04-15T09:39:51.241Z,48.93
2023-04-15T09:42:26.768Z,50.14
2023-04-15T09:44:54.475Z,50.64
2023-04-15T09:47:32.551Z,49.89
2023-04-15T09:50:00.495Z,50.92
2023-04-15T09:52:28.905Z,50.10
2023-04-15T09:54:57.950Z,48.10
2023-04-15T09:57:25.207Z,48.34
2023-04-15T09:59:53.328Z,48.34
2023-04-15T10:02:22.812Z,47.58
2023-04-15T10:04:50.351Z,46.71
2023-04-15T10:07:20.816Z,46.72
2023-04-15T10:09:49.449Z,47.49
2023-04-15T10:12:17.957Z,46.52
2023-04-15T10:14:45.709Z,44.85
2023-04-15T10:17:12.869Z,44.67
2023-04-15T10:19:40.840Z,43.06
2023-04-15T10:22:07.631Z,43.18
2023-04-15T10:24:34.860Z,44.16
2023-04-15T10:27:01.756Z,44.34
2023-04-15T10:29:29.342Z,41.34
2023-04-15T10:31:56.400Z,41.28
2023-04-15T10:34:26.547Z,44.73
2023-04-15T10:36:57.441Z,44.89
2023-04-15T10:39:34.360Z,44.28
2023-04-15T10:42:30.672Z,45.77
2023-04-15T10:44:58.334Z,46.56
2023-04-15T10:47:26.286Z,44.81
2023-04-15T10:50:02.486Z,44.10
2023-04-15T10:52:30.164Z,43.29
2023-04-15T10:55:20.110Z,43.95
2023-04-15T10:57:47.773Z,44.37
2023-04-15T11:00:16.950Z,44.75
2023-04-15T11:03:04.685Z,43.21
2023-04-15T11:05:50.365Z,43.91
2023-04-15T11:08:21.460Z,42.98
2023-04-15T11:10:48.809Z,43.43
2023-04-15T11:13:18.841Z,44.53
2023-04-15T11:15:47.005Z,43.48
2023-04-15T11:18:24.410Z,43.00
2023-04-15T11:21:01.692Z,42.45
2023-04-15T11:23:39.110Z,43.85
2023-04-15T11:26:09.904Z,43.58
2023-04-15T11:28:39.059Z,43.62
2023-04-15T11:31:10.843Z,42.89
2023-04-15T11:33:38.889Z,41.08
2023-04-15T11:36:07.566Z,42.39
2023-04-15T11:38:35.679Z,40.83
2023-04-15T11:41:03.248Z,41.59
2023-04-15T11:43:30.592Z,41.47
2023-04-15T11:46:00.394Z,39.41
2023-04-15T11:48:35.348Z,39.08
2023-04-15T11:51:06.004Z,37.36
2023-04-15T11:53:46.356Z,36.22
2023-04-15T11:56:24.907Z,36.74
2023-04-15T11:58:59.585Z,35.69
2023-04-15T12:01:37.404Z,34.32
2023-04-15T12:04:12.771Z,33.35
2023-04-15T12:06:41.376Z,34.26
2023-04-15T12:09:14.459Z,34.25
2023-04-15T12:11:57.588Z,34.68
2023-04-15T12:14:31.226Z,35.22
2023-04-15T12:17:00.384Z,33.41
2023-04-15T12:19:39.530Z,31.53
2023-04-15T12:22:10.178Z,31.51
2023-04-15T12:24:37.747Z,31.14
2023-04-15T12:27:29.707Z,31.01
2023-04-15T12:30:08.104Z,31.04
2023-04-15T12:32:39.599Z,31.40
2023-04-15T12:35:10.067Z,29.72
2023-04-15T12:37:37.999Z,30.06
2023-04-15T12:40:05.903Z,31.58
2023-04-15T12:42:33.654Z,32.31
2023-04-15T12:45:02.410Z,32.15
2023-04-15T12:47:30.498Z,32.38
2023-04-15T12:49:57.928Z,31.84
2023-04-15T12:52:25.642Z,32.56
2023-04-15T12:54:54.365Z,32.99
2023-04-15T12:57:21.855Z,32.59
2023-04-15T12:59:49.271Z,31.58
2023-04-15T13:02:17.351Z,31.86
2023-04-15T13:04:45.444Z,31.75
2023-04-15T13:07:14.130Z,30.77
2023-04-15T13:09:42.092Z,29.44
2023-04-15T13:12:10.449Z,28.87
2023-04-15T13:14:38.396Z,27.20
2023-04-15T13:17:10.170Z,26.54
2023-04-15T13:19:37.634Z,26.07
2023-04-15T13:22:08.518Z,25.86
2023-04-15T13:24:36.577Z,25.50
2023-04-15T13:27:04.454Z,25.04
2023-04-15T13:29:32.668Z,24.85
2023-04-15T13:32:01.574Z,25.13
2023-04-15T13:34:29.486Z,26.61
2023-04-15T13:36:57.799Z,27.68
2023-04-15T13:39:25.589Z,28.44
2023-04-15T13:41:53.543Z,27.15
2023-04-15T13:44:22.342Z,27.20
2023-04-15T13:46:50.191Z,28.05
2023-04-15T13:49:18.314Z,28.07
2023-04-15T13:51:46.396Z,28.04
2023-04-15T13:54:14.558Z,27.20
2023-04-15T13:56:42.374Z,27.53
2023-04-15T13:59:10.428Z,28.45
2023-04-15T14:01:37.949Z,28.59
2023-04-15T14:04:06.791Z,27.33
2023-04-15T14:06:34.554Z,26.96
2023-04-15T14:09:02.149Z,27.54
2023-04-15T14:11:30.043Z,28.06
2023-04-15T14:13:57.905Z,29.25
2023-04-15T14:16:24.995Z,29.35
2023-04-15T14:18:52.603Z,28.30
2023-04-15T14:21:20.601Z,27.11
2023-04-15T14:23:48.520Z,26.42
2023-04-15T14:26:16.414Z,26.33
2023-04-15T14:28:44.997Z,27.13
2023-04-15T14:31:13.180Z,27.92
2023-04-15T14:33:40.706Z,28.95
2023-04-15T14:36:09.332Z,29.01
2023-04-15T14:38:40.175Z,28.47
2023-04-15T14:41:08.145Z,28.21
2023-04-15T14:43:44.394Z,28.86
2023-04-15T14:46:12.155Z,30.04
2023-04-15T14:48:39.699Z,30.93
2023-04-15T14:51:07.619Z,32.02
2023-04-15T14:53:35.313Z,32.31
2023-04-15T14:56:03.163Z,32.90
2023-04-15T14:58:30.867Z,33.19
2023-04-15T15:00:58.863Z,33.58
2023-04-15T15:03:26.049Z,32.33
2023-04-15T15:05:53.727Z,31.78
2023-04-15T15:08:21.854Z,31.52
2023-04-15T15:10:50.327Z,31.51
2023-04-15T15:13:17.981Z,30.92
2023-04-15T15:15:45.134Z,31.71
2023-04-15T15:18:12.729Z,32.64
2023-04-15T15:20:40.980Z,33.22
2023-04-15T15:23:08.848Z,33.35
2023-04-15T15:25:36.718Z,33.81
2023-04-15T15:28:04.751Z,32.10
2023-04-15T15:30:32.642Z,32.86
2023-04-15T15:33:00.964Z,33.54
2023-04-15T15:35:28.658Z,33.90
2023-04-15T15:37:56.034Z,33.98
2023-04-15T15:40:24.358Z,32.51
2023-04-15T15:42:51.870Z,30.81
2023-04-15T15:45:19.973Z,31.36
2023-04-15T15:47:48.543Z,31.27
2023-04-15T15:50:16.496Z,31.11
2023-04-15T15:52:44.159Z,32.36
2023-04-15T15:55:11.774Z,33.33
2023-04-15T15:57:39.739Z,33.65
2023-04-15T16:00:12.547Z,34.10
2023-04-15T16:03:05.260Z,34.40
2023-04-15T16:05:28.661Z,35.13
2023-04-15T16:07:56.363Z,35.40
2023-04-15T16:10:23.818Z,35.56
2023-04-15T16:12:51.605Z,36.36
2023-04-15T16:15:19.558Z,36.12
2023-04-15T16:17:47.468Z,36.05
2023-04-15T16:20:15.451Z,36.03
2023-04-15T16:22:45.728Z,36.67
2023-04-15T16:25:13.654Z,36.75
2023-04-15T16:27:54.607Z,36.64
2023-04-15T16:30:27.113Z,37.33
2023-04-15T16:32:54.624Z,37.13
2023-04-15T16:35:22.487Z,37.32
2023-04-15T16:37:50.597Z,37.54
2023-04-15T16:40:18.654Z,37.70
2023-04-15T16:42:47.112Z,38.28
2023-04-15T16:45:14.722Z,38.73
2023-04-15T16:47:46.781Z,39.03
2023-04-15T16:50:14.878Z,39.13
2023-04-15T16:52:42.431Z,38.58
2023-04-15T16:55:10.010Z,38.81
2023-04-15T16:57:58.795Z,38.73
2023-04-15T17:00:25.708Z,38.67
2023-04-15T17:02:54.247Z,38.66
2023-04-15T17:05:22.757Z,39.57
2023-04-15T17:07:50.732Z,40.75
2023-04-15T17:10:18.978Z,42.78
2023-04-15T17:12:50.292Z,44.24
2023-04-15T17:15:20.082Z,45.20
2023-04-15T17:17:48.134Z,45.10
2023-04-15T17:20:17.565Z,45.34
2023-04-15T17:22:46.892Z,45.25
2023-04-15T17:25:15.435Z,45.15
2023-04-15T17:27:43.675Z,45.04
2023-04-15T17:30:11.765Z,45.22
2023-04-15T17:32:40.016Z,44.96
2023-04-15T17:35:10.398Z,45.53
2023-04-15T17:37:38.537Z,45.67
2023-04-15T17:40:09.017Z,45.50
2023-04-15T17:42:36.755Z,45.35
2023-04-15T17:45:05.559Z,45.50
2023-04-15T17:47:35.930Z,45.58
2023-04-15T17:50:03.426Z,45.63
2023-04-15T17:52:30.943Z,46.23
2023-04-15T17:54:58.349Z,46.32
2023-04-15T17:57:26.366Z,46.92
2023-04-15T17:59:54.306Z,47.21
2023-04-15T18:02:22.331Z,46.99
2023-04-15T18:04:50.003Z,46.92
2023-04-15T18:07:17.335Z,47.32
2023-04-15T18:09:44.828Z,47.86
2023-04-15T18:12:12.617Z,48.25
2023-04-15T18:14:42.620Z,48.39
2023-04-15T18:17:10.415Z,48.47
2023-04-15T18:19:37.887Z,48.92
2023-04-15T18:22:06.083Z,49.30
2023-04-15T18:24:34.007Z,48.87
2023-04-15T18:27:01.691Z,49.60
2023-04-15T18:29:29.053Z,49.09
2023-04-15T18:31:58.771Z,49.65
2023-04-15T18:34:27.128Z,49.84
2023-04-15T18:36:56.559Z,50.62
2023-04-15T18:39:24.612Z,50.69
2023-04-15T18:41:52.542Z,50.39
2023-04-15T18:44:20.646Z,50.20
2023-04-15T18:46:49.898Z,50.40
2023-04-15T18:49:17.881Z,50.33
2023-04-15T18:51:46.479Z,50.20
2023-04-15T18:54:14.378Z,50.64
2023-04-15T18:56:42.356Z,51.23
2023-04-15T18:59:29.991Z,51.17
2023-04-15T19:01:59.209Z,51.05
2023-04-15T19:04:28.841Z,51.08
2023-04-15T19:06:59.385Z,50.91
2023-04-15T19:09:27.258Z,51.59
2023-04-15T19:11:54.702Z,51.88
2023-04-15T19:14:22.681Z,51.89
2023-04-15T19:16:50.268Z,51.89
2023-04-15T19:19:17.998Z,52.11
2023-04-15T19:21:47.657Z,52.76
2023-04-15T19:24:15.998Z,52.84
2023-04-15T19:26:44.395Z,52.99
2023-04-15T19:29:12.392Z,53.24
2023-04-15T19:31:40.507Z,53.34
2023-04-15T19:34:08.470Z,53.63
2023-04-15T19:36:36.172Z,54.04
2023-04-15T19:39:04.311Z,54.36
2023-04-15T19:41:32.116Z,54.18
2023-04-15T19:44:00.299Z,54.57
2023-04-15T19:46:27.629Z,54.14
2023-04-15T19:48:55.923Z,54.05
2023-04-15T19:51:23.829Z,53.68
2023-04-15T19:53:53.873Z,53.53
2023-04-15T19:56:23.820Z,53.86
2023-04-15T19:58:53.106Z,54.39
2023-04-15T20:01:23.860Z,54.68
2023-04-15T20:03:51.225Z,54.42
2023-04-15T20:06:19.361Z,54.59
2023-04-15T20:08:48.966Z,55.09
2023-04-15T20:11:17.089Z,54.95
2023-04-15T20:13:45.290Z,55.25
2023-04-15T20:16:13.328Z,55.00
2023-04-15T20:18:41.593Z,55.03
2023-04-15T20:21:09.158Z,55.33
2023-04-15T20:23:38.732Z,55.67
2023-04-15T20:26:06.583Z,55.62
2023-04-15T20:28:38.266Z,56.09
2023-04-15T20:31:05.920Z,55.67
2023-04-15T20:33:33.483Z,55.68
2023-04-15T20:36:01.093Z,56.01
2023-04-15T20:38:29.047Z,55.67
2023-04-15T20:40:57.828Z,55.65
2023-04-15T20:43:26.126Z,55.78
2023-04-15T20:45:54.355Z,55.71
2023-04-15T20:48:23.255Z,55.88
2023-04-15T20:50:52.093Z,55.60
2023-04-15T20:53:20.351Z,55.41
2023-04-15T20:55:48.138Z,54.77
2023-04-15T20:58:15.647Z,54.45
2023-04-15T21:00:43.480Z,54.83
2023-04-15T21:03:12.336Z,54.26
2023-04-15T21:05:40.270Z,54.38
2023-04-15T21:08:08.828Z,54.17
2023-04-15T21:10:36.303Z,54.05
2023-04-15T21:13:04.477Z,53.87
2023-04-15T21:15:31.960Z,53.54
2023-04-15T21:17:59.881Z,53.48
2023-04-15T21:20:28.015Z,53.33
2023-04-15T21:22:58.764Z,53.08
2023-04-15T21:25:26.188Z,53.20
2023-04-15T21:27:53.980Z,53.18
2023-04-15T21:30:23.756Z,53.22
2023-04-15T21:32:51.738Z,53.31
2023-04-15T21:35:19.383Z,53.68
2023-04-15T21:37:47.403Z,53.79
2023-04-15T21:40:15.900Z,54.05
2023-04-15T21:42:43.417Z,54.16
2023-04-15T21:45:13.312Z,54.41
2023-04-15T21:48:00.386Z,54.68
2023-04-15T21:50:27.659Z,55.14
2023-04-15T21:52:56.217Z,55.07
2023-04-15T21:55:24.058Z,55.59
2023-04-15T21:57:51.657Z,55.41
2023-04-15T22:00:19.562Z,55.99
2023-04-15T22:02:47.561Z,55.45
2023-04-15T22:05:15.542Z,55.54
2023-04-15T22:07:43.051Z,55.76
2023-04-15T22:10:11.799Z,55.96
2023-04-15T22:12:43.914Z,55.80
2023-04-15T22:15:12.232Z,55.80
2023-04-15T22:17:39.744Z,56.19
2023-04-15T22:20:10.400Z,56.46
2023-04-15T22:22:44.090Z,56.41
2023-04-15T22:25:12.727Z,56.76
2023-04-15T22:27:40.317Z,56.97
2023-04-15T22:30:10.553Z,57.18
2023-04-15T22:32:38.472Z,57.05
2023-04-15T22:35:07.696Z,57.62
2023-04-15T22:37:35.495Z,57.99
2023-04-15T22:40:03.305Z,58.20
2023-04-15T22:42:30.833Z,57.87
2023-04-15T22:44:58.695Z,58.04
2023-04-15T22:47:26.365Z,58.23
2023-04-15T22:49:53.773Z,58.44
2023-04-15T22:52:30.120Z,58.75
2023-04-15T22:54:58.876Z,59.02
2023-04-15T22:57:27.896Z,59.17
2023-04-15T22:59:55.360Z,59.21
2023-04-15T23:02:23.357Z,59.53
2023-04-15T23:04:51.560Z,59.68
2023-04-15T23:07:19.695Z,59.67
2023-04-15T23:09:47.536Z,60.27
2023-04-15T23:12:15.417Z,59.79
2023-04-15T23:14:43.257Z,60.08
2023-04-15T23:17:13.554Z,59.96
2023-04-15T23:19:41.168Z,59.91
2023-04-15T23:22:10.667Z,59.44
2023-04-15T23:24:38.654Z,59.83
2023-04-15T23:27:06.064Z,58.97
2023-04-15T23:29:34.027Z,59.06
2023-04-15T23:32:01.827Z,59.28
2023-04-15T23:34:29.274Z,59.51
2023-04-15T23:36:57.043Z,59.67
2023-04-15T23:39:24.912Z,59.78
2023-04-15T23:41:52.449Z,60.02
2023-04-15T23:44:20.834Z,60.00
2023-04-15T23:46:48.362Z,60.24
2023-04-15T23:49:16.347Z,60.34
2023-04-15T23:51:44.963Z,60.45
2023-04-15T23:54:12.871Z,60.56
2023-04-15T23:56:40.626Z,60.82
2023-04-15T23:59:08.333Z,61.60
